sensor_id;sensor_type;location;lat;lon;timestamp;pressure;altitude;pressure_sealevel;temperature;humidity
16461;BME280;8341;42.048;24.650;2023-04-08T00:02:08;97391.00;;;8.30;59.54
16461;BME280;8341;42.048;24.650;2023-04-08T00:04:35;97382.50;;;8.10;60.66
16461;BME280;8341;42.048;24.650;2023-04-08T00:07:02;97383.13;;;7.96;60.60
16461;BME280;8341;42.048;24.650;2023-04-08T00:09:29;97379.63;;;8.04;58.48
16461;BME280;8341;42.048;24.650;2023-04-08T00:11:56;97387.34;;;8.06;57.68
16461;BME280;8341;42.048;24.650;2023-04-08T00:14:23;97388.09;;;7.97;57.10
16461;BME280;8341;42.048;24.650;2023-04-08T00:16:50;97388.84;;;8.07;58.46
16461;BME280;8341;42.048;24.650;2023-04-08T00:19:18;97394.13;;;8.10;56.64
16461;BME280;8341;42.048;24.650;2023-04-08T00:21:45;97391.72;;;8.03;56.40
16461;BME280;8341;42.048;24.650;2023-04-08T00:24:13;97393.38;;;8.10;55.50
16461;BME280;8341;42.048;24.650;2023-04-08T00:26:40;97385.38;;;8.06;55.35
16461;BME280;8341;42.048;24.650;2023-04-08T00:29:07;97392.34;;;8.26;55.47
16461;BME280;8341;42.048;24.650;2023-04-08T00:31:34;97387.09;;;8.31;57.04
16461;BME280;8341;42.048;24.650;2023-04-08T00:34:01;97384.97;;;8.35;60.06
16461;BME280;8341;42.048;24.650;2023-04-08T00:36:29;97383.91;;;8.33;60.62
16461;BME280;8341;42.048;24.650;2023-04-08T00:38:56;97378.47;;;8.33;59.47
16461;BME280;8341;42.048;24.650;2023-04-08T00:41:23;97384.53;;;8.37;60.16
16461;BME280;8341;42.048;24.650;2023-04-08T00:43:51;97387.25;;;8.37;58.91
16461;BME280;8341;42.048;24.650;2023-04-08T00:46:18;97391.75;;;8.31;59.05
16461;BME280;8341;42.048;24.650;2023-04-08T00:48:45;97394.63;;;7.60;63.81
16461;BME280;8341;42.048;24.650;2023-04-08T00:51:12;97406.59;;;7.32;63.48
16461;BME280;8341;42.048;24.650;2023-04-08T00:53:42;97400.81;;;7.61;62.81
16461;BME280;8341;42.048;24.650;2023-04-08T00:56:09;97408.25;;;7.69;62.14
16461;BME280;8341;42.048;24.650;2023-04-08T00:58:39;97374.59;;;7.67;62.11
16461;BME280;8341;42.048;24.650;2023-04-08T01:01:27;97392.00;;;7.87;62.31
16461;BME280;8341;42.048;24.650;2023-04-08T01:04:14;97404.97;;;7.92;62.37
16461;BME280;8341;42.048;24.650;2023-04-08T01:06:48;97406.34;;;7.97;61.14
16461;BME280;8341;42.048;24.650;2023-04-08T01:09:18;97413.13;;;8.01;60.52
16461;BME280;8341;42.048;24.650;2023-04-08T01:11:49;97410.72;;;8.03;60.74
16461;BME280;8341;42.048;24.650;2023-04-08T01:14:20;97402.88;;;8.05;61.85
16461;BME280;8341;42.048;24.650;2023-04-08T01:16:49;97404.38;;;8.06;62.23
16461;BME280;8341;42.048;24.650;2023-04-08T01:19:22;97400.34;;;8.11;62.27
16461;BME280;8341;42.048;24.650;2023-04-08T01:21:54;97408.00;;;8.12;61.64
16461;BME280;8341;42.048;24.650;2023-04-08T01:24:29;97401.69;;;8.15;61.82
16461;BME280;8341;42.048;24.650;2023-04-08T01:27:01;97363.78;;;7.94;61.49
16461;BME280;8341;42.048;24.650;2023-04-08T01:29:30;97399.72;;;8.16;62.02
16461;BME280;8341;42.048;24.650;2023-04-08T01:31:58;97403.94;;;8.17;62.63
16461;BME280;8341;42.048;24.650;2023-04-08T01:34:27;97401.38;;;8.13;62.76
16461;BME280;8341;42.048;24.650;2023-04-08T01:36:55;97403.22;;;8.16;63.55
16461;BME280;8341;42.048;24.650;2023-04-08T01:39:24;97407.41;;;8.17;63.61
16461;BME280;8341;42.048;24.650;2023-04-08T01:41:52;97404.84;;;8.14;62.56
16461;BME280;8341;42.048;24.650;2023-04-08T01:44:23;97406.50;;;7.93;63.60
16461;BME280;8341;42.048;24.650;2023-04-08T01:46:52;97402.84;;;7.96;62.29
16461;BME280;8341;42.048;24.650;2023-04-08T01:49:21;97398.66;;;7.95;62.00
16461;BME280;8341;42.048;24.650;2023-04-08T01:51:50;97371.75;;;7.79;61.95
16461;BME280;8341;42.048;24.650;2023-04-08T01:54:19;97412.53;;;7.97;62.01
16461;BME280;8341;42.048;24.650;2023-04-08T01:56:46;97380.84;;;7.85;62.09
16461;BME280;8341;42.048;24.650;2023-04-08T01:59:16;97415.69;;;7.96;61.54
16461;BME280;8341;42.048;24.650;2023-04-08T02:01:46;97415.72;;;8.05;60.47
16461;BME280;8341;42.048;24.650;2023-04-08T02:04:14;97415.88;;;8.10;62.78
16461;BME280;8341;42.048;24.650;2023-04-08T02:06:41;97416.63;;;8.11;64.47
16461;BME280;8341;42.048;24.650;2023-04-08T02:09:08;97417.97;;;8.15;65.56
16461;BME280;8341;42.048;24.650;2023-04-08T02:11:35;97417.69;;;8.13;66.21
16461;BME280;8341;42.048;24.650;2023-04-08T02:14:02;97422.78;;;8.11;65.96
16461;BME280;8341;42.048;24.650;2023-04-08T02:16:33;97426.28;;;8.12;67.11
16461;BME280;8341;42.048;24.650;2023-04-08T02:19:07;97439.56;;;8.10;66.58
16461;BME280;8341;42.048;24.650;2023-04-08T02:21:43;97419.31;;;8.02;66.29
16461;BME280;8341;42.048;24.650;2023-04-08T02:24:12;97428.09;;;8.06;65.21
16461;BME280;8341;42.048;24.650;2023-04-08T02:26:42;97434.25;;;8.06;65.89
16461;BME280;8341;42.048;24.650;2023-04-08T02:29:12;97429.28;;;7.96;64.92
16461;BME280;8341;42.048;24.650;2023-04-08T02:31:42;97428.22;;;7.93;63.49
16461;BME280;8341;42.048;24.650;2023-04-08T02:34:11;97430.75;;;7.88;63.46
16461;BME280;8341;42.048;24.650;2023-04-08T02:36:40;97433.16;;;7.86;64.59
16461;BME280;8341;42.048;24.650;2023-04-08T02:39:10;97426.09;;;7.88;65.93
16461;BME280;8341;42.048;24.650;2023-04-08T02:41:37;97423.94;;;7.83;66.69
16461;BME280;8341;42.048;24.650;2023-04-08T02:44:04;97425.47;;;7.84;68.66
16461;BME280;8341;42.048;24.650;2023-04-08T02:46:31;97425.75;;;7.77;69.24
16461;BME280;8341;42.048;24.650;2023-04-08T02:48:58;97433.13;;;7.77;70.18
16461;BME280;8341;42.048;24.650;2023-04-08T02:51:27;97436.03;;;7.82;69.77
16461;BME280;8341;42.048;24.650;2023-04-08T02:53:54;97440.22;;;7.83;69.23
16461;BME280;8341;42.048;24.650;2023-04-08T02:56:21;97432.69;;;7.78;69.24
16461;BME280;8341;42.048;24.650;2023-04-08T02:58:48;97446.88;;;7.82;69.57
16461;BME280;8341;42.048;24.650;2023-04-08T03:01:16;97430.53;;;7.64;69.67
16461;BME280;8341;42.048;24.650;2023-04-08T03:03:43;97429.34;;;7.65;69.98
16461;BME280;8341;42.048;24.650;2023-04-08T03:06:10;97455.03;;;7.82;70.30
16461;BME280;8341;42.048;24.650;2023-04-08T03:08:39;97452.59;;;7.75;71.23
16461;BME280;8341;42.048;24.650;2023-04-08T03:11:06;97449.56;;;7.73;70.19
16461;BME280;8341;42.048;24.650;2023-04-08T03:13:34;97450.19;;;7.77;70.85
16461;BME280;8341;42.048;24.650;2023-04-08T03:16:01;97459.53;;;7.76;70.81
16461;BME280;8341;42.048;24.650;2023-04-08T03:18:28;97447.72;;;7.61;69.94
16461;BME280;8341;42.048;24.650;2023-04-08T03:20:55;97454.66;;;7.62;70.22
16461;BME280;8341;42.048;24.650;2023-04-08T03:23:22;97441.03;;;7.53;70.33
16461;BME280;8341;42.048;24.650;2023-04-08T03:25:51;97445.19;;;7.36;72.54
16461;BME280;8341;42.048;24.650;2023-04-08T03:28:17;97454.53;;;7.35;71.65
16461;BME280;8341;42.048;24.650;2023-04-08T03:30:45;97457.47;;;7.19;69.96
16461;BME280;8341;42.048;24.650;2023-04-08T03:33:12;97462.31;;;7.24;69.61
16461;BME280;8341;42.048;24.650;2023-04-08T03:35:39;97460.97;;;7.28;70.61
16461;BME280;8341;42.048;24.650;2023-04-08T03:38:06;97466.72;;;7.30;72.76
16461;BME280;8341;42.048;24.650;2023-04-08T03:40:33;97469.91;;;7.38;72.97
16461;BME280;8341;42.048;24.650;2023-04-08T03:43:01;97462.84;;;7.40;73.51
16461;BME280;8341;42.048;24.650;2023-04-08T03:45:30;97471.16;;;7.46;73.63
16461;BME280;8341;42.048;24.650;2023-04-08T03:47:57;97472.69;;;7.47;73.11
16461;BME280;8341;42.048;24.650;2023-04-08T03:50:24;97471.78;;;7.50;72.80
16461;BME280;8341;42.048;24.650;2023-04-08T03:52:51;97464.78;;;7.40;72.64
16461;BME280;8341;42.048;24.650;2023-04-08T03:55:18;97474.50;;;7.50;72.49
16461;BME280;8341;42.048;24.650;2023-04-08T03:57:45;97476.47;;;7.49;71.47
16461;BME280;8341;42.048;24.650;2023-04-08T04:00:14;97484.16;;;7.51;70.20
16461;BME280;8341;42.048;24.650;2023-04-08T04:02:41;97481.31;;;7.54;70.06
16461;BME280;8341;42.048;24.650;2023-04-08T04:05:08;97476.47;;;7.49;70.28
16461;BME280;8341;42.048;24.650;2023-04-08T04:07:35;97474.19;;;7.48;71.66
16461;BME280;8341;42.048;24.650;2023-04-08T04:10:02;97482.81;;;7.55;71.23
16461;BME280;8341;42.048;24.650;2023-04-08T04:12:29;97486.84;;;7.42;72.95
16461;BME280;8341;42.048;24.650;2023-04-08T04:14:58;97482.63;;;7.50;71.03
16461;BME280;8341;42.048;24.650;2023-04-08T04:17:26;97492.47;;;7.56;71.99
16461;BME280;8341;42.048;24.650;2023-04-08T04:19:53;97486.75;;;7.54;70.50
16461;BME280;8341;42.048;24.650;2023-04-08T04:22:20;97484.03;;;7.54;70.68
16461;BME280;8341;42.048;24.650;2023-04-08T04:24:48;97486.41;;;7.52;70.36
16461;BME280;8341;42.048;24.650;2023-04-08T04:27:15;97482.03;;;7.55;70.41
16461;BME280;8341;42.048;24.650;2023-04-08T04:29:43;97494.31;;;7.60;70.69
16461;BME280;8341;42.048;24.650;2023-04-08T04:32:10;97491.44;;;7.63;70.01
16461;BME280;8341;42.048;24.650;2023-04-08T04:34:39;97489.38;;;7.67;69.86
16461;BME280;8341;42.048;24.650;2023-04-08T04:37:06;97486.38;;;7.74;69.51
16461;BME280;8341;42.048;24.650;2023-04-08T04:39:33;97491.78;;;7.74;70.39
16461;BME280;8341;42.048;24.650;2023-04-08T04:42:00;97486.25;;;7.78;69.75
16461;BME280;8341;42.048;24.650;2023-04-08T04:44:28;97470.94;;;7.62;68.42
16461;BME280;8341;42.048;24.650;2023-04-08T04:46:55;97486.06;;;7.72;68.10
16461;BME280;8341;42.048;24.650;2023-04-08T04:49:22;97487.31;;;7.80;67.18
16461;BME280;8341;42.048;24.650;2023-04-08T04:51:50;97485.50;;;7.86;66.63
16461;BME280;8341;42.048;24.650;2023-04-08T04:54:17;97488.22;;;7.86;69.10
16461;BME280;8341;42.048;24.650;2023-04-08T04:56:44;97488.84;;;7.90;70.62
16461;BME280;8341;42.048;24.650;2023-04-08T04:59:11;97498.25;;;8.07;70.90
16461;BME280;8341;42.048;24.650;2023-04-08T05:01:38;97499.75;;;8.08;70.93
16461;BME280;8341;42.048;24.650;2023-04-08T05:04:05;97504.59;;;8.13;71.44
16461;BME280;8341;42.048;24.650;2023-04-08T05:06:32;97507.31;;;8.13;70.66
16461;BME280;8341;42.048;24.650;2023-04-08T05:09:01;97508.88;;;8.33;69.55
16461;BME280;8341;42.048;24.650;2023-04-08T05:11:28;97507.09;;;8.39;68.77
16461;BME280;8341;42.048;24.650;2023-04-08T05:13:55;97512.88;;;8.50;68.95
16461;BME280;8341;42.048;24.650;2023-04-08T05:16:22;97516.78;;;8.58;67.83
16461;BME280;8341;42.048;24.650;2023-04-08T05:18:49;97510.13;;;8.59;65.90
16461;BME280;8341;42.048;24.650;2023-04-08T05:21:16;97501.06;;;8.53;64.48
16461;BME280;8341;42.048;24.650;2023-04-08T05:23:43;97508.34;;;8.65;63.32
16461;BME280;8341;42.048;24.650;2023-04-08T05:26:12;97519.22;;;8.74;63.29
16461;BME280;8341;42.048;24.650;2023-04-08T05:28:39;97520.88;;;8.80;62.86
16461;BME280;8341;42.048;24.650;2023-04-08T05:31:06;97511.69;;;8.78;61.51
16461;BME280;8341;42.048;24.650;2023-04-08T05:33:33;97526.19;;;8.93;61.86
16461;BME280;8341;42.048;24.650;2023-04-08T05:36:00;97527.69;;;9.03;62.50
16461;BME280;8341;42.048;24.650;2023-04-08T05:38:28;97522.22;;;9.12;62.84
16461;BME280;8341;42.048;24.650;2023-04-08T05:40:54;97520.69;;;9.20;61.74
16461;BME280;8341;42.048;24.650;2023-04-08T05:43:23;97504.38;;;9.20;59.97
16461;BME280;8341;42.048;24.650;2023-04-08T05:45:50;97525.78;;;9.45;63.21
16461;BME280;8341;42.048;24.650;2023-04-08T05:48:17;97505.31;;;8.90;64.70
16461;BME280;8341;42.048;24.650;2023-04-08T05:50:44;97527.38;;;8.74;67.76
16461;BME280;8341;42.048;24.650;2023-04-08T05:53:12;97520.97;;;8.41;68.53
16461;BME280;8341;42.048;24.650;2023-04-08T05:55:40;97519.66;;;8.54;67.49
16461;BME280;8341;42.048;24.650;2023-04-08T05:58:07;97524.63;;;8.56;68.96
16461;BME280;8341;42.048;24.650;2023-04-08T06:00:35;97518.91;;;8.72;68.10
16461;BME280;8341;42.048;24.650;2023-04-08T06:03:02;97518.59;;;8.79;66.94
16461;BME280;8341;42.048;24.650;2023-04-08T06:05:30;97516.78;;;8.76;66.62
16461;BME280;8341;42.048;24.650;2023-04-08T06:07:58;97510.44;;;8.79;65.06
16461;BME280;8341;42.048;24.650;2023-04-08T06:10:25;97523.28;;;8.97;66.38
16461;BME280;8341;42.048;24.650;2023-04-08T06:12:52;97520.44;;;8.73;67.59
16461;BME280;8341;42.048;24.650;2023-04-08T06:15:19;97517.69;;;8.55;71.44
16461;BME280;8341;42.048;24.650;2023-04-08T06:17:48;97521.00;;;8.50;75.37
16461;BME280;8341;42.048;24.650;2023-04-08T06:20:15;97529.00;;;8.53;75.99
16461;BME280;8341;42.048;24.650;2023-04-08T06:22:42;97528.28;;;8.62;79.11
16461;BME280;8341;42.048;24.650;2023-04-08T06:25:09;97526.31;;;8.80;77.18
16461;BME280;8341;42.048;24.650;2023-04-08T06:27:36;97521.34;;;8.70;74.48
16461;BME280;8341;42.048;24.650;2023-04-08T06:30:03;97510.75;;;8.54;79.49
16461;BME280;8341;42.048;24.650;2023-04-08T06:32:31;97523.72;;;8.59;79.18
16461;BME280;8341;42.048;24.650;2023-04-08T06:35:00;97528.56;;;8.64;79.28
16461;BME280;8341;42.048;24.650;2023-04-08T06:37:27;97521.63;;;8.81;78.70
16461;BME280;8341;42.048;24.650;2023-04-08T06:39:54;97522.38;;;9.00;76.80
16461;BME280;8341;42.048;24.650;2023-04-08T06:42:21;97520.41;;;8.91;79.76
16461;BME280;8341;42.048;24.650;2023-04-08T06:44:48;97508.34;;;8.83;86.45
16461;BME280;8341;42.048;24.650;2023-04-08T06:47:15;97510.47;;;8.70;90.26
16461;BME280;8341;42.048;24.650;2023-04-08T06:49:42;97519.81;;;8.87;89.63
16461;BME280;8341;42.048;24.650;2023-04-08T06:52:11;97516.50;;;8.74;91.95
16461;BME280;8341;42.048;24.650;2023-04-08T06:54:38;97511.06;;;8.74;91.94
16461;BME280;8341;42.048;24.650;2023-04-08T06:57:05;97509.69;;;8.51;94.20
16461;BME280;8341;42.048;24.650;2023-04-08T06:59:32;97507.72;;;8.61;93.32
16461;BME280;8341;42.048;24.650;2023-04-08T07:01:59;97510.44;;;8.52;94.51
16461;BME280;8341;42.048;24.650;2023-04-08T07:04:26;97514.81;;;8.76;92.58
16461;BME280;8341;42.048;24.650;2023-04-08T07:06:53;97511.34;;;8.67;91.83
16461;BME280;8341;42.048;24.650;2023-04-08T07:09:22;97510.47;;;8.70;91.24
16461;BME280;8341;42.048;24.650;2023-04-08T07:11:49;97511.34;;;8.76;90.72
16461;BME280;8341;42.048;24.650;2023-04-08T07:14:16;97518.00;;;9.02;87.49
16461;BME280;8341;42.048;24.650;2023-04-08T07:16:44;97516.81;;;9.03;88.07
16461;BME280;8341;42.048;24.650;2023-04-08T07:19:11;97522.22;;;9.21;86.81
16461;BME280;8341;42.048;24.650;2023-04-08T07:21:38;97525.56;;;9.16;84.54
16461;BME280;8341;42.048;24.650;2023-04-08T07:24:06;97522.59;;;9.65;84.43
16461;BME280;8341;42.048;24.650;2023-04-08T07:26:35;97527.84;;;9.78;77.87
16461;BME280;8341;42.048;24.650;2023-04-08T07:29:02;97516.66;;;9.67;78.67
16461;BME280;8341;42.048;24.650;2023-04-08T07:31:29;97526.34;;;9.68;78.92
16461;BME280;8341;42.048;24.650;2023-04-08T07:33:56;97533.00;;;10.41;77.18
16461;BME280;8341;42.048;24.650;2023-04-08T07:36:23;97525.28;;;10.63;74.32
16461;BME280;8341;42.048;24.650;2023-04-08T07:38:50;97526.56;;;10.53;72.71
16461;BME280;8341;42.048;24.650;2023-04-08T07:41:17;97527.00;;;10.37;72.54
16461;BME280;8341;42.048;24.650;2023-04-08T07:43:46;97533.41;;;10.96;71.64
16461;BME280;8341;42.048;24.650;2023-04-08T07:46:13;97535.66;;;10.50;72.32
16461;BME280;8341;42.048;24.650;2023-04-08T07:48:40;97542.06;;;10.47;71.93
16461;BME280;8341;42.048;24.650;2023-04-08T07:51:08;97540.44;;;10.41;71.40
16461;BME280;8341;42.048;24.650;2023-04-08T07:53:35;97539.63;;;10.73;70.91
16461;BME280;8341;42.048;24.650;2023-04-08T07:56:10;97530.22;;;10.50;71.21
16461;BME280;8341;42.048;24.650;2023-04-08T07:58:37;97538.50;;;11.03;68.95
16461;BME280;8341;42.048;24.650;2023-04-08T08:01:15;97544.31;;;10.96;71.18
16461;BME280;8341;42.048;24.650;2023-04-08T08:03:42;97548.31;;;11.24;70.08
16461;BME280;8341;42.048;24.650;2023-04-08T08:06:10;97551.59;;;11.14;71.17
16461;BME280;8341;42.048;24.650;2023-04-08T08:08:37;97547.13;;;11.02;70.16
16461;BME280;8341;42.048;24.650;2023-04-08T08:11:04;97561.50;;;11.41;69.27
16461;BME280;8341;42.048;24.650;2023-04-08T08:13:32;97548.41;;;11.30;68.51
16461;BME280;8341;42.048;24.650;2023-04-08T08:15:59;97551.50;;;11.23;66.69
16461;BME280;8341;42.048;24.650;2023-04-08T08:18:27;97557.63;;;11.71;66.37
16461;BME280;8341;42.048;24.650;2023-04-08T08:20:54;97551.44;;;11.61;64.48
16461;BME280;8341;42.048;24.650;2023-04-08T08:23:21;97563.25;;;11.82;65.95
16461;BME280;8341;42.048;24.650;2023-04-08T08:25:53;97551.63;;;11.43;67.17
16461;BME280;8341;42.048;24.650;2023-04-08T08:28:24;97551.75;;;11.92;67.33
16461;BME280;8341;42.048;24.650;2023-04-08T08:30:51;97559.81;;;12.16;65.74
16461;BME280;8341;42.048;24.650;2023-04-08T08:33:18;97550.00;;;12.10;64.68
16461;BME280;8341;42.048;24.650;2023-04-08T08:35:47;97559.31;;;11.68;64.69
16461;BME280;8341;42.048;24.650;2023-04-08T08:38:14;97556.63;;;11.45;65.79
16461;BME280;8341;42.048;24.650;2023-04-08T08:40:42;97543.47;;;11.58;66.31
16461;BME280;8341;42.048;24.650;2023-04-08T08:43:09;97544.78;;;11.48;63.92
16461;BME280;8341;42.048;24.650;2023-04-08T08:45:38;97537.41;;;11.39;66.16
16461;BME280;8341;42.048;24.650;2023-04-08T08:48:06;97549.97;;;11.75;65.48
16461;BME280;8341;42.048;24.650;2023-04-08T08:50:34;97540.25;;;11.59;65.07
16461;BME280;8341;42.048;24.650;2023-04-08T08:53:02;97546.47;;;11.60;64.08
16461;BME280;8341;42.048;24.650;2023-04-08T08:55:31;97546.47;;;11.74;66.40
16461;BME280;8341;42.048;24.650;2023-04-08T08:57:58;97542.50;;;11.46;67.59
16461;BME280;8341;42.048;24.650;2023-04-08T09:00:33;97544.41;;;11.69;65.88
16461;BME280;8341;42.048;24.650;2023-04-08T09:03:14;97542.53;;;11.75;65.50
16461;BME280;8341;42.048;24.650;2023-04-08T09:05:52;97542.97;;;11.59;65.85
16461;BME280;8341;42.048;24.650;2023-04-08T09:08:25;97540.22;;;11.30;66.21
16461;BME280;8341;42.048;24.650;2023-04-08T09:10:52;97548.00;;;11.75;64.16
16461;BME280;8341;42.048;24.650;2023-04-08T09:13:21;97555.41;;;11.60;65.22
16461;BME280;8341;42.048;24.650;2023-04-08T09:16:02;97549.13;;;11.83;63.89
16461;BME280;8341;42.048;24.650;2023-04-08T09:18:29;97546.63;;;12.00;62.80
16461;BME280;8341;42.048;24.650;2023-04-08T09:20:58;97559.38;;;11.74;64.76
16461;BME280;8341;42.048;24.650;2023-04-08T09:23:39;97542.50;;;11.61;65.62
16461;BME280;8341;42.048;24.650;2023-04-08T09:26:07;97552.13;;;11.85;66.21
16461;BME280;8341;42.048;24.650;2023-04-08T09:28:35;97550.91;;;12.01;66.00
16461;BME280;8341;42.048;24.650;2023-04-08T09:31:17;97551.72;;;11.49;65.95
16461;BME280;8341;42.048;24.650;2023-04-08T09:33:45;97548.38;;;11.68;66.16
16461;BME280;8341;42.048;24.650;2023-04-08T09:36:13;97551.16;;;11.59;64.80
16461;BME280;8341;42.048;24.650;2023-04-08T09:38:41;97556.47;;;11.77;65.80
16461;BME280;8341;42.048;24.650;2023-04-08T09:41:12;97551.34;;;12.00;64.18
16461;BME280;8341;42.048;24.650;2023-04-08T09:43:42;97549.13;;;11.83;63.34
16461;BME280;8341;42.048;24.650;2023-04-08T09:46:14;97552.75;;;11.66;62.42
16461;BME280;8341;42.048;24.650;2023-04-08T09:48:48;97550.41;;;12.03;62.81
16461;BME280;8341;42.048;24.650;2023-04-08T09:51:18;97553.63;;;11.86;63.86
16461;BME280;8341;42.048;24.650;2023-04-08T09:53:51;97547.50;;;11.77;64.34
16461;BME280;8341;42.048;24.650;2023-04-08T09:56:21;97554.19;;;11.90;64.96
16461;BME280;8341;42.048;24.650;2023-04-08T09:58:53;97553.94;;;12.23;64.61
16461;BME280;8341;42.048;24.650;2023-04-08T10:01:29;97559.69;;;12.40;59.97
16461;BME280;8341;42.048;24.650;2023-04-08T10:03:59;97560.47;;;12.61;59.50
16461;BME280;8341;42.048;24.650;2023-04-08T10:06:27;97553.41;;;12.19;60.95
16461;BME280;8341;42.048;24.650;2023-04-08T10:08:57;97556.97;;;12.60;60.18
16461;BME280;8341;42.048;24.650;2023-04-08T10:11:25;97554.44;;;12.77;59.46
16461;BME280;8341;42.048;24.650;2023-04-08T10:13:52;97557.03;;;12.66;59.19
16461;BME280;8341;42.048;24.650;2023-04-08T10:16:21;97554.09;;;12.89;58.83
16461;BME280;8341;42.048;24.650;2023-04-08T10:18:51;97551.28;;;13.24;58.99
16461;BME280;8341;42.048;24.650;2023-04-08T10:21:34;97537.59;;;13.24;58.04
16461;BME280;8341;42.048;24.650;2023-04-08T10:24:05;97531.63;;;13.26;56.94
16461;BME280;8341;42.048;24.650;2023-04-08T10:26:34;97550.47;;;13.44;56.43
16461;BME280;8341;42.048;24.650;2023-04-08T10:32:08;97542.19;;;13.64;55.22
16461;BME280;8341;42.048;24.650;2023-04-08T10:34:53;97541.16;;;13.87;56.09
16461;BME280;8341;42.048;24.650;2023-04-08T10:37:20;97539.81;;;13.77;53.36
16461;BME280;8341;42.048;24.650;2023-04-08T10:39:54;97535.28;;;13.68;55.42
16461;BME280;8341;42.048;24.650;2023-04-08T10:42:26;97536.22;;;13.91;54.98
16461;BME280;8341;42.048;24.650;2023-04-08T10:44:59;97540.50;;;13.98;54.85
16461;BME280;8341;42.048;24.650;2023-04-08T10:47:26;97530.28;;;13.98;54.23
16461;BME280;8341;42.048;24.650;2023-04-08T10:49:53;97523.88;;;14.12;54.10
16461;BME280;8341;42.048;24.650;2023-04-08T10:52:21;97520.84;;;14.05;54.18
16461;BME280;8341;42.048;24.650;2023-04-08T10:54:48;97513.91;;;14.09;55.11
16461;BME280;8341;42.048;24.650;2023-04-08T10:57:22;97513.41;;;14.11;52.58
16461;BME280;8341;42.048;24.650;2023-04-08T10:59:50;97512.13;;;13.69;53.55
16461;BME280;8341;42.048;24.650;2023-04-08T11:02:17;97509.00;;;13.88;53.55
16461;BME280;8341;42.048;24.650;2023-04-08T11:04:44;97496.53;;;13.81;53.95
16461;BME280;8341;42.048;24.650;2023-04-08T11:07:12;97499.88;;;13.65;54.52
16461;BME280;8341;42.048;24.650;2023-04-08T11:09:40;97491.28;;;13.83;54.04
16461;BME280;8341;42.048;24.650;2023-04-08T11:12:08;97495.31;;;14.24;55.68
16461;BME280;8341;42.048;24.650;2023-04-08T11:14:39;97496.06;;;13.88;53.83
16461;BME280;8341;42.048;24.650;2023-04-08T11:17:08;97490.03;;;13.84;54.48
16461;BME280;8341;42.048;24.650;2023-04-08T11:19:36;97484.59;;;14.26;54.34
16461;BME280;8341;42.048;24.650;2023-04-08T11:22:04;97466.72;;;14.36;54.39
16461;BME280;8341;42.048;24.650;2023-04-08T11:24:33;97486.75;;;14.54;54.39
16461;BME280;8341;42.048;24.650;2023-04-08T11:27:02;97482.13;;;14.76;54.02
16461;BME280;8341;42.048;24.650;2023-04-08T11:29:30;97477.66;;;14.90;53.21
16461;BME280;8341;42.048;24.650;2023-04-08T11:32:00;97462.16;;;14.81;52.89
16461;BME280;8341;42.048;24.650;2023-04-08T11:34:27;97477.44;;;14.93;52.71
16461;BME280;8341;42.048;24.650;2023-04-08T11:36:55;97466.47;;;14.99;53.36
16461;BME280;8341;42.048;24.650;2023-04-08T11:39:23;97478.19;;;15.05;54.15
16461;BME280;8341;42.048;24.650;2023-04-08T11:41:50;97459.34;;;14.59;54.23
16461;BME280;8341;42.048;24.650;2023-04-08T11:44:17;97460.78;;;14.49;55.15
16461;BME280;8341;42.048;24.650;2023-04-08T11:46:51;97455.50;;;14.34;55.53
16461;BME280;8341;42.048;24.650;2023-04-08T11:49:22;97452.66;;;14.23;55.40
16461;BME280;8341;42.048;24.650;2023-04-08T11:51:54;97453.66;;;14.26;56.55
16461;BME280;8341;42.048;24.650;2023-04-08T11:54:27;97446.34;;;14.06;57.12
16461;BME280;8341;42.048;24.650;2023-04-08T11:56:54;97459.66;;;14.24;57.54
16461;BME280;8341;42.048;24.650;2023-04-08T11:59:22;97451.53;;;14.47;56.59
16461;BME280;8341;42.048;24.650;2023-04-08T12:01:51;97450.63;;;14.61;55.02
16461;BME280;8341;42.048;24.650;2023-04-08T12:04:18;97453.25;;;14.38;55.41
16461;BME280;8341;42.048;24.650;2023-04-08T12:06:47;97444.16;;;14.69;56.37
16461;BME280;8341;42.048;24.650;2023-04-08T12:09:14;97443.97;;;14.84;55.10
16461;BME280;8341;42.048;24.650;2023-04-08T12:11:41;97435.72;;;14.84;55.42
16461;BME280;8341;42.048;24.650;2023-04-08T12:14:08;97439.47;;;14.92;55.23
16461;BME280;8341;42.048;24.650;2023-04-08T12:16:35;97434.97;;;15.00;54.69
16461;BME280;8341;42.048;24.650;2023-04-08T12:19:02;97426.28;;;15.01;54.62
16461;BME280;8341;42.048;24.650;2023-04-08T12:21:29;97437.53;;;15.15;53.91
16461;BME280;8341;42.048;24.650;2023-04-08T12:23:58;97439.53;;;15.20;53.32
16461;BME280;8341;42.048;24.650;2023-04-08T12:26:25;97432.03;;;15.09;52.59
16461;BME280;8341;42.048;24.650;2023-04-08T12:28:52;97424.28;;;15.24;52.72
16461;BME280;8341;42.048;24.650;2023-04-08T12:31:19;97433.78;;;15.40;53.04
16461;BME280;8341;42.048;24.650;2023-04-08T12:33:47;97431.03;;;15.23;51.80
16461;BME280;8341;42.048;24.650;2023-04-08T12:36:14;97422.78;;;15.34;51.67
16461;BME280;8341;42.048;24.650;2023-04-08T12:38:41;97427.06;;;15.35;51.85
16461;BME280;8341;42.048;24.650;2023-04-08T12:41:10;97427.28;;;15.21;51.76
16461;BME280;8341;42.048;24.650;2023-04-08T12:43:37;97422.31;;;15.30;52.85
16461;BME280;8341;42.048;24.650;2023-04-08T12:46:05;97424.03;;;15.33;52.51
16461;BME280;8341;42.048;24.650;2023-04-08T12:48:32;97417.28;;;15.18;52.16
16461;BME280;8341;42.048;24.650;2023-04-08T12:50:59;97406.50;;;14.92;54.48
16461;BME280;8341;42.048;24.650;2023-04-08T12:53:26;97417.50;;;14.81;55.42
16461;BME280;8341;42.048;24.650;2023-04-08T12:55:53;97412.00;;;14.92;57.43
16461;BME280;8341;42.048;24.650;2023-04-08T12:58:24;97404.25;;;14.79;56.17
16461;BME280;8341;42.048;24.650;2023-04-08T13:00:51;97404.75;;;14.78;55.61
16461;BME280;8341;42.048;24.650;2023-04-08T13:03:18;97399.00;;;14.70;54.87
16461;BME280;8341;42.048;24.650;2023-04-08T13:05:45;97394.47;;;14.62;56.27
16461;BME280;8341;42.048;24.650;2023-04-08T13:08:12;97406.72;;;14.61;54.57
16461;BME280;8341;42.048;24.650;2023-04-08T13:10:41;97401.78;;;14.22;52.12
16461;BME280;8341;42.048;24.650;2023-04-08T13:13:08;97402.97;;;14.10;51.40
16461;BME280;8341;42.048;24.650;2023-04-08T13:15:37;97402.53;;;13.75;53.05
16461;BME280;8341;42.048;24.650;2023-04-08T13:18:04;97406.34;;;13.52;53.06